sensor_id;sensor_type;location;lat;lon;timestamp;pressure;altitude;pressure_sealevel;temperature;humidity
19236;BME280;9752;54.270;12.470;2023-01-19T00:03:55;100264.94;;;-3.08;100.00
19236;BME280;9752;54.270;12.470;2023-01-19T00:08:57;100259.59;;;-3.02;100.00
19236;BME280;9752;54.270;12.470;2023-01-19T00:14:00;100260.50;;;-3.02;100.00
19236;BME280;9752;54.270;12.470;2023-01-19T00:19:02;100265.31;;;-2.96;100.00
19236;BME280;9752;54.270;12.470;2023-01-19T00:24:05;100264.69;;;-3.02;100.00
19236;BME280;9752;54.270;12.470;2023-01-19T00:29:09;100263.97;;;-3.01;100.00
19236;BME280;9752;54.270;12.470;2023-01-19T00:34:11;100255.06;;;-3.14;100.00
19236;BME280;9752;54.270;12.470;2023-01-19T00:39:12;100267.00;;;-3.12;100.00
19236;BME280;9752;54.270;12.470;2023-01-19T00:44:15;100260.88;;;-3.15;100.00
19236;BME280;9752;54.270;12.470;2023-01-19T00:49:17;100259.81;;;-3.17;100.00
19236;BME280;9752;54.270;12.470;2023-01-19T00:54:19;100265.19;;;-3.14;100.00
19236;BME280;9752;54.270;12.470;2023-01-19T00:59:22;100266.94;;;-3.05;100.00
19236;BME280;9752;54.270;12.470;2023-01-19T01:04:25;100259.56;;;-3.11;100.00
19236;BME280;9752;54.270;12.470;2023-01-19T01:09:26;100271.50;;;-3.10;100.00
19236;BME280;9752;54.270;12.470;2023-01-19T01:14:30;100255.94;;;-3.13;100.00
19236;BME280;9752;54.270;12.470;2023-01-19T01:19:31;100257.66;;;-3.21;100.00
19236;BME280;9752;54.270;12.470;2023-01-19T01:24:33;100250.31;;;-3.10;100.00
19236;BME280;9752;54.270;12.470;2023-01-19T01:29:36;100250.88;;;-3.13;100.00
19236;BME280;9752;54.270;12.470;2023-01-19T01:34:40;100249.16;;;-3.05;100.00
19236;BME280;9752;54.270;12.470;2023-01-19T01:39:43;100251.84;;;-3.04;100.00
19236;BME280;9752;54.270;12.470;2023-01-19T01:44:51;100256.09;;;-2.96;100.00
19236;BME280;9752;54.270;12.470;2023-01-19T01:49:58;100247.41;;;-2.98;100.00
19236;BME280;9752;54.270;12.470;2023-01-19T01:55:03;100245.94;;;-2.96;100.00
19236;BME280;9752;54.270;12.470;2023-01-19T02:00:10;100247.97;;;-2.84;100.00
19236;BME280;9752;54.270;12.470;2023-01-19T02:05:15;100228.91;;;-2.97;100.00
19236;BME280;9752;54.270;12.470;2023-01-19T02:10:17;100220.31;;;-2.90;100.00
19236;BME280;9752;54.270;12.470;2023-01-19T02:15:38;100219.88;;;-2.86;100.00
19236;BME280;9752;54.270;12.470;2023-01-19T02:20:42;100223.41;;;-2.68;100.00
19236;BME280;9752;54.270;12.470;2023-01-19T02:25:48;100225.75;;;-2.78;100.00
19236;BME280;9752;54.270;12.470;2023-01-19T02:30:49;100227.53;;;-2.77;100.00
19236;BME280;9752;54.270;12.470;2023-01-19T02:35:53;100224.41;;;-2.75;100.00
19236;BME280;9752;54.270;12.470;2023-01-19T02:40:59;100219.78;;;-2.79;100.00
19236;BME280;9752;54.270;12.470;2023-01-19T02:46:02;100216.97;;;-2.73;100.00
19236;BME280;9752;54.270;12.470;2023-01-19T02:51:11;100208.59;;;-2.72;100.00
19236;BME280;9752;54.270;12.470;2023-01-19T03:01:59;100217.88;;;-2.72;100.00
19236;BME280;9752;54.270;12.470;2023-01-19T03:07:08;100226.78;;;-2.76;100.00
19236;BME280;9752;54.270;12.470;2023-01-19T03:12:20;100219.38;;;-2.90;100.00
19236;BME280;9752;54.270;12.470;2023-01-19T03:17:24;100224.47;;;-2.90;100.00
19236;BME280;9752;54.270;12.470;2023-01-19T03:22:28;100227.84;;;-2.99;100.00
19236;BME280;9752;54.270;12.470;2023-01-19T03:27:34;100215.38;;;-2.88;100.00
19236;BME280;9752;54.270;12.470;2023-01-19T03:32:43;100215.16;;;-2.74;100.00
19236;BME280;9752;54.270;12.470;2023-01-19T03:37:47;100222.19;;;-2.71;100.00
19236;BME280;9752;54.270;12.470;2023-01-19T03:42:52;100219.88;;;-2.61;100.00
19236;BME280;9752;54.270;12.470;2023-01-19T03:47:55;100219.59;;;-2.47;100.00
19236;BME280;9752;54.270;12.470;2023-01-19T03:53:00;100220.22;;;-2.49;100.00
19236;BME280;9752;54.270;12.470;2023-01-19T03:58:03;100214.47;;;-2.22;100.00
19236;BME280;9752;54.270;12.470;2023-01-19T04:03:09;100221.25;;;-2.05;100.00
19236;BME280;9752;54.270;12.470;2023-01-19T04:08:12;100212.16;;;-1.94;100.00
19236;BME280;9752;54.270;12.470;2023-01-19T04:13:15;100213.09;;;-1.85;100.00
19236;BME280;9752;54.270;12.470;2023-01-19T04:18:17;100208.91;;;-1.76;100.00
19236;BME280;9752;54.270;12.470;2023-01-19T04:23:19;100207.28;;;-1.67;100.00
19236;BME280;9752;54.270;12.470;2023-01-19T04:28:22;100198.16;;;-1.65;100.00
19236;BME280;9752;54.270;12.470;2023-01-19T04:33:23;100186.19;;;-1.66;100.00
19236;BME280;9752;54.270;12.470;2023-01-19T04:38:26;100185.00;;;-1.69;100.00
19236;BME280;9752;54.270;12.470;2023-01-19T04:43:29;100188.44;;;-1.78;100.00
19236;BME280;9752;54.270;12.470;2023-01-19T04:48:30;100180.03;;;-1.77;100.00
19236;BME280;9752;54.270;12.470;2023-01-19T04:53:32;100175.75;;;-1.69;100.00
19236;BME280;9752;54.270;12.470;2023-01-19T04:58:35;100166.63;;;-1.67;100.00
19236;BME280;9752;54.270;12.470;2023-01-19T05:03:37;100161.66;;;-1.74;100.00
19236;BME280;9752;54.270;12.470;2023-01-19T05:08:39;100155.53;;;-1.85;100.00
19236;BME280;9752;54.270;12.470;2023-01-19T05:13:42;100149.81;;;-1.82;100.00
19236;BME280;9752;54.270;12.470;2023-01-19T05:18:44;100136.53;;;-1.88;100.00
19236;BME280;9752;54.270;12.470;2023-01-19T05:23:46;100130.41;;;-1.90;100.00
19236;BME280;9752;54.270;12.470;2023-01-19T05:28:48;100141.03;;;-1.77;100.00
19236;BME280;9752;54.270;12.470;2023-01-19T05:33:50;100143.56;;;-1.51;100.00
19236;BME280;9752;54.270;12.470;2023-01-19T05:38:52;100130.38;;;-1.38;100.00
19236;BME280;9752;54.270;12.470;2023-01-19T05:43:55;100133.94;;;-1.19;100.00
19236;BME280;9752;54.270;12.470;2023-01-19T05:48:57;100130.34;;;-1.12;100.00
19236;BME280;9752;54.270;12.470;2023-01-19T05:54:00;100124.31;;;-1.04;100.00
19236;BME280;9752;54.270;12.470;2023-01-19T05:59:04;100122.50;;;-0.96;100.00
19236;BME280;9752;54.270;12.470;2023-01-19T06:04:05;100120.38;;;-0.91;100.00
19236;BME280;9752;54.270;12.470;2023-01-19T06:09:07;100120.06;;;-0.86;100.00
19236;BME280;9752;54.270;12.470;2023-01-19T06:14:11;100118.53;;;-0.84;100.00
19236;BME280;9752;54.270;12.470;2023-01-19T06:19:12;100125.28;;;-0.75;100.00
19236;BME280;9752;54.270;12.470;2023-01-19T06:24:14;100120.00;;;-0.68;100.00
19236;BME280;9752;54.270;12.470;2023-01-19T06:29:17;100126.56;;;-0.62;100.00
19236;BME280;9752;54.270;12.470;2023-01-19T06:34:19;100125.19;;;-0.58;100.00
19236;BME280;9752;54.270;12.470;2023-01-19T06:39:21;100127.56;;;-0.51;100.00
19236;BME280;9752;54.270;12.470;2023-01-19T06:44:24;100131.28;;;-0.47;100.00
19236;BME280;9752;54.270;12.470;2023-01-19T06:49:26;100132.19;;;-0.47;100.00
19236;BME280;9752;54.270;12.470;2023-01-19T06:54:27;100129.94;;;-0.44;100.00
19236;BME280;9752;54.270;12.470;2023-01-19T06:59:30;100134.25;;;-0.43;100.00
19236;BME280;9752;54.270;12.470;2023-01-19T07:04:32;100132.41;;;-0.35;100.00
19236;BME280;9752;54.270;12.470;2023-01-19T07:09:34;100137.19;;;-0.29;100.00
19236;BME280;9752;54.270;12.470;2023-01-19T07:14:37;100130.31;;;-0.30;100.00
19236;BME280;9752;54.270;12.470;2023-01-19T07:19:38;100132.22;;;-0.28;100.00
19236;BME280;9752;54.270;12.470;2023-01-19T07:24:40;100141.31;;;-0.21;100.00
19236;BME280;9752;54.270;12.470;2023-01-19T07:29:43;100141.94;;;-0.24;100.00
19236;BME280;9752;54.270;12.470;2023-01-19T07:34:45;100146.41;;;-0.21;100.00
19236;BME280;9752;54.270;12.470;2023-01-19T07:39:46;100152.53;;;-0.19;100.00
19236;BME280;9752;54.270;12.470;2023-01-19T07:44:49;100137.69;;;-0.14;100.00
19236;BME280;9752;54.270;12.470;2023-01-19T07:49:51;100133.78;;;-0.11;100.00
19236;BME280;9752;54.270;12.470;2023-01-19T07:54:52;100133.00;;;-0.10;100.00
19236;BME280;9752;54.270;12.470;2023-01-19T07:59:55;100144.53;;;-0.05;100.00
19236;BME280;9752;54.270;12.470;2023-01-19T08:04:57;100143.69;;;0.05;100.00
19236;BME280;9752;54.270;12.470;2023-01-19T08:09:59;100157.91;;;0.12;100.00
19236;BME280;9752;54.270;12.470;2023-01-19T08:15:02;100156.75;;;0.08;100.00
19236;BME280;9752;54.270;12.470;2023-01-19T08:20:05;100164.19;;;0.15;100.00
19236;BME280;9752;54.270;12.470;2023-01-19T08:25:08;100155.72;;;0.25;100.00
19236;BME280;9752;54.270;12.470;2023-01-19T08:30:12;100158.66;;;0.11;100.00
19236;BME280;9752;54.270;12.470;2023-01-19T08:35:14;100155.88;;;0.27;100.00
19236;BME280;9752;54.270;12.470;2023-01-19T08:40:16;100163.22;;;0.43;100.00
19236;BME280;9752;54.270;12.470;2023-01-19T08:45:20;100154.75;;;0.52;100.00
19236;BME280;9752;54.270;12.470;2023-01-19T08:50:22;100159.44;;;0.67;100.00
19236;BME280;9752;54.270;12.470;2023-01-19T08:55:24;100158.22;;;0.82;100.00
19236;BME280;9752;54.270;12.470;2023-01-19T09:00:27;100157.69;;;1.05;100.00
19236;BME280;9752;54.270;12.470;2023-01-19T09:05:31;100155.47;;;1.29;100.00
19236;BME280;9752;54.270;12.470;2023-01-19T09:10:35;100156.44;;;1.10;100.00
19236;BME280;9752;54.270;12.470;2023-01-19T09:15:39;100143.03;;;1.23;100.00
19236;BME280;9752;54.270;12.470;2023-01-19T09:20:43;100152.94;;;1.39;100.00
19236;BME280;9752;54.270;12.470;2023-01-19T09:25:46;100153.63;;;1.17;100.00
19236;BME280;9752;54.270;12.470;2023-01-19T09:30:49;100144.84;;;1.14;100.00
19236;BME280;9752;54.270;12.470;2023-01-19T09:35:51;100152.06;;;1.39;100.00
19236;BME280;9752;54.270;12.470;2023-01-19T09:40:54;100150.63;;;1.32;100.00
19236;BME280;9752;54.270;12.470;2023-01-19T09:45:59;100153.63;;;1.17;100.00
19236;BME280;9752;54.270;12.470;2023-01-19T09:51:04;100154.50;;;1.47;100.00
19236;BME280;9752;54.270;12.470;2023-01-19T09:56:11;100149.41;;;1.58;100.00
19236;BME280;9752;54.270;12.470;2023-01-19T10:01:25;100149.53;;;1.59;100.00
19236;BME280;9752;54.270;12.470;2023-01-19T10:06:30;100146.09;;;1.19;100.00
19236;BME280;9752;54.270;12.470;2023-01-19T10:11:36;100149.88;;;1.04;100.00
19236;BME280;9752;54.270;12.470;2023-01-19T10:16:50;100140.19;;;1.10;100.00
19236;BME280;9752;54.270;12.470;2023-01-19T10:21:54;100150.03;;;1.05;100.00
19236;BME280;9752;54.270;12.470;2023-01-19T10:26:58;100145.13;;;0.98;100.00
19236;BME280;9752;54.270;12.470;2023-01-19T10:32:05;100154.03;;;0.93;100.00
19236;BME280;9752;54.270;12.470;2023-01-19T10:37:16;100154.00;;;0.83;100.00
19236;BME280;9752;54.270;12.470;2023-01-19T10:42:24;100156.53;;;0.72;100.00
19236;BME280;9752;54.270;12.470;2023-01-19T10:47:34;100165.59;;;0.79;100.00
19236;BME280;9752;54.270;12.470;2023-01-19T10:52:38;100170.44;;;0.95;100.00
19236;BME280;9752;54.270;12.470;2023-01-19T10:57:41;100169.97;;;1.09;100.00
19236;BME280;9752;54.270;12.470;2023-01-19T11:02:49;100179.97;;;1.27;100.00
19236;BME280;9752;54.270;12.470;2023-01-19T11:07:51;100174.13;;;1.28;100.00
19236;BME280;9752;54.270;12.470;2023-01-19T11:12:58;100174.63;;;1.34;100.00
19236;BME280;9752;54.270;12.470;2023-01-19T11:18:04;100180.81;;;1.46;100.00
19236;BME280;9752;54.270;12.470;2023-01-19T11:23:19;100179.44;;;1.60;100.00
19236;BME280;9752;54.270;12.470;2023-01-19T11:28:26;100177.16;;;1.63;100.00
19236;BME280;9752;54.270;12.470;2023-01-19T11:33:34;100173.31;;;1.58;100.00
19236;BME280;9752;54.270;12.470;2023-01-19T11:38:40;100182.50;;;1.66;100.00
19236;BME280;9752;54.270;12.470;2023-01-19T11:43:43;100181.13;;;1.60;100.00
19236;BME280;9752;54.270;12.470;2023-01-19T11:48:49;100170.25;;;1.72;100.00
19236;BME280;9752;54.270;12.470;2023-01-19T11:53:55;100168.34;;;1.70;100.00
19236;BME280;9752;54.270;12.470;2023-01-19T11:58:57;100168.19;;;1.58;100.00
19236;BME280;9752;54.270;12.470;2023-01-19T12:04:03;100177.63;;;1.49;100.00
19236;BME280;9752;54.270;12.470;2023-01-19T12:09:14;100191.28;;;1.39;100.00
19236;BME280;9752;54.270;12.470;2023-01-19T12:14:21;100194.41;;;1.26;100.00
19236;BME280;9752;54.270;12.470;2023-01-19T12:19:36;100196.81;;;1.14;100.00
19236;BME280;9752;54.270;12.470;2023-01-19T12:24:48;100203.94;;;1.08;100.00
19236;BME280;9752;54.270;12.470;2023-01-19T12:29:53;100204.97;;;1.10;100.00
19236;BME280;9752;54.270;12.470;2023-01-19T12:34:56;100195.06;;;1.24;100.00
19236;BME280;9752;54.270;12.470;2023-01-19T12:40:00;100204.56;;;1.35;100.00
19236;BME280;9752;54.270;12.470;2023-01-19T12:45:05;100214.13;;;1.38;100.00
19236;BME280;9752;54.270;12.470;2023-01-19T12:50:15;100219.59;;;1.32;100.00
19236;BME280;9752;54.270;12.470;2023-01-19T12:55:23;100218.34;;;1.37;100.00
19236;BME280;9752;54.270;12.470;2023-01-19T13:00:32;100215.25;;;1.70;100.00
19236;BME280;9752;54.270;12.470;2023-01-19T13:05:50;100213.09;;;1.75;100.00
19236;BME280;9752;54.270;12.470;2023-01-19T13:11:17;100221.41;;;1.83;100.00
19236;BME280;9752;54.270;12.470;2023-01-19T13:16:49;100222.06;;;2.01;100.00
19236;BME280;9752;54.270;12.470;2023-01-19T13:21:54;100225.66;;;2.03;100.00
19236;BME280;9752;54.270;12.470;2023-01-19T13:26:56;100231.94;;;1.96;100.00
19236;BME280;9752;54.270;12.470;2023-01-19T13:32:04;100232.56;;;2.04;100.00
19236;BME280;9752;54.270;12.470;2023-01-19T13:37:16;100242.13;;;1.86;100.00
19236;BME280;9752;54.270;12.470;2023-01-19T13:42:25;100237.28;;;1.79;100.00
19236;BME280;9752;54.270;12.470;2023-01-19T13:47:38;100246.84;;;1.71;100.00
19236;BME280;9752;54.270;12.470;2023-01-19T13:52:44;100259.91;;;1.84;100.00
19236;BME280;9752;54.270;12.470;2023-01-19T13:57:46;100268.44;;;1.74;100.00
19236;BME280;9752;54.270;12.470;2023-01-19T14:02:55;100272.09;;;1.58;100.00
19236;BME280;9752;54.270;12.470;2023-01-19T14:08:09;100274.38;;;1.54;100.00
19236;BME280;9752;54.270;12.470;2023-01-19T14:13:14;100276.34;;;1.38;100.00
19236;BME280;9752;54.270;12.470;2023-01-19T14:18:26;100294.94;;;1.27;100.00
19236;BME280;9752;54.270;12.470;2023-01-19T14:23:43;100303.44;;;1.17;100.00
19236;BME280;9752;54.270;12.470;2023-01-19T14:28:46;100318.72;;;1.07;100.00
19236;BME280;9752;54.270;12.470;2023-01-19T14:33:50;100317.47;;;0.93;100.00
19236;BME280;9752;54.270;12.470;2023-01-19T14:38:55;100322.91;;;0.87;100.00
19236;BME280;9752;54.270;12.470;2023-01-19T14:43:59;100332.22;;;0.87;100.00
19236;BME280;9752;54.270;12.470;2023-01-19T14:49:02;100335.66;;;0.68;100.00
19236;BME280;9752;54.270;12.470;2023-01-19T14:54:12;100344.81;;;0.66;100.00
19236;BME280;9752;54.270;12.470;2023-01-19T14:59:17;100352.69;;;0.59;100.00
19236;BME280;9752;54.270;12.470;2023-01-19T15:04:19;100356.81;;;0.48;100.00
19236;BME280;9752;54.270;12.470;2023-01-19T15:09:22;100372.63;;;0.63;100.00
19236;BME280;9752;54.270;12.470;2023-01-19T15:14:24;100380.19;;;0.81;100.00
19236;BME280;9752;54.270;12.470;2023-01-19T15:19:27;100384.00;;;0.94;100.00
19236;BME280;9752;54.270;12.470;2023-01-19T15:24:30;100383.94;;;1.03;100.00
19236;BME280;9752;54.270;12.470;2023-01-19T15:29:31;100382.38;;;1.14;100.00
19236;BME280;9752;54.270;12.470;2023-01-19T15:34:33;100391.97;;;1.16;100.00
19236;BME280;9752;54.270;12.470;2023-01-19T15:39:36;100391.47;;;1.21;100.00
19236;BME280;9752;54.270;12.470;2023-01-19T15:44:39;100396.19;;;1.16;100.00
19236;BME280;9752;54.270;12.470;2023-01-19T15:49:40;100405.78;;;1.19;100.00
19236;BME280;9752;54.270;12.470;2023-01-19T15:54:43;100409.50;;;1.22;100.00
19236;BME280;9752;54.270;12.470;2023-01-19T15:59:45;100409.69;;;1.15;100.00
19236;BME280;9752;54.270;12.470;2023-01-19T16:04:47;100419.91;;;1.15;100.00
19236;BME280;9752;54.270;12.470;2023-01-19T16:10:05;100421.59;;;1.14;100.00
19236;BME280;9752;54.270;12.470;2023-01-19T16:15:09;100425.47;;;1.20;100.00
19236;BME280;9752;54.270;12.470;2023-01-19T16:20:11;100437.91;;;1.25;100.00
19236;BME280;9752;54.270;12.470;2023-01-19T16:25:14;100440.31;;;1.24;100.00
19236;BME280;9752;54.270;12.470;2023-01-19T16:30:16;100436.22;;;1.26;100.00
19236;BME280;9752;54.270;12.470;2023-01-19T16:35:18;100436.97;;;1.25;100.00
19236;BME280;9752;54.270;12.470;2023-01-19T16:40:21;100438.78;;;1.26;100.00
19236;BME280;9752;54.270;12.470;2023-01-19T16:45:23;100432.50;;;1.22;100.00
19236;BME280;9752;54.270;12.470;2023-01-19T16:50:25;100437.91;;;1.25;100.00
19236;BME280;9752;54.270;12.470;2023-01-19T16:55:28;100450.53;;;1.24;100.00
19236;BME280;9752;54.270;12.470;2023-01-19T17:00:29;100450.84;;;1.18;100.00
19236;BME280;9752;54.270;12.470;2023-01-19T17:05:31;100460.16;;;1.17;100.00
19236;BME280;9752;54.270;12.470;2023-01-19T17:10:35;100466.53;;;1.12;100.00
19236;BME280;9752;54.270;12.470;2023-01-19T17:15:39;100475.06;;;1.13;100.00
19236;BME280;9752;54.270;12.470;2023-01-19T17:20:41;100475.22;;;1.14;100.00
19236;BME280;9752;54.270;12.470;2023-01-19T17:25:50;100480.03;;;1.11;100.00
19236;BME280;9752;54.270;12.470;2023-01-19T17:30:52;100485.16;;;1.11;100.00
19236;BME280;9752;54.270;12.470;2023-01-19T17:35:54;100486.81;;;1.11;100.00
19236;BME280;9752;54.270;12.470;2023-01-19T17:40:57;100482.44;;;1.10;100.00
19236;BME280;9752;54.270;12.470;2023-01-19T17:45:59;100494.97;;;0.98;100.00
19236;BME280;9752;54.270;12.470;2023-01-19T17:51:01;100496.59;;;0.70;100.00
19236;BME280;9752;54.270;12.470;2023-01-19T17:56:08;100500.66;;;0.76;100.00
19236;BME280;9752;54.270;12.470;2023-01-19T18:01:11;100508.88;;;0.83;100.00
19236;BME280;9752;54.270;12.470;2023-01-19T18:06:13;100512.28;;;0.92;100.00
19236;BME280;9752;54.270;12.470;2023-01-19T18:11:18;100522.47;;;1.01;100.00
19236;BME280;9752;54.270;12.470;2023-01-19T18:16:21;100533.25;;;1.07;100.00
19236;BME280;9752;54.270;12.470;2023-01-19T18:21:24;100532.47;;;0.80;100.00
19236;BME280;9752;54.270;12.470;2023-01-19T18:26:31;100535.31;;;0.38;100.00
19236;BME280;9752;54.270;12.470;2023-01-19T18:31:33;100539.50;;;0.20;100.00
19236;BME280;9752;54.270;12.470;2023-01-19T18:36:34;100552.72;;;-0.02;100.00
19236;BME280;9752;54.270;12.470;2023-01-19T18:41:37;100565.63;;;-0.09;100.00
19236;BME280;9752;54.270;12.470;2023-01-19T18:46:41;100574.03;;;-0.18;100.00
19236;BME280;9752;54.270;12.470;2023-01-19T18:51:43;100578.34;;;-0.17;100.00
19236;BME280;9752;54.270;12.470;2023-01-19T18:56:48;100577.47;;;-0.09;100.00
19236;BME280;9752;54.270;12.470;2023-01-19T19:01:50;100598.91;;;-0.07;100.00
19236;BME280;9752;54.270;12.470;2023-01-19T19:06:52;100605.19;;;-0.30;100.00
19236;BME280;9752;54.270;12.470;2023-01-19T19:11:55;100617.03;;;-0.30;100.00
19236;BME280;9752;54.270;12.470;2023-01-19T19:16:57;100621.50;;;-0.45;100.00
19236;BME280;9752;54.270;12.470;2023-01-19T19:21:59;100634.78;;;-0.56;100.00
19236;BME280;9752;54.270;12.470;2023-01-19T19:27:02;100650.13;;;-0.72;100.00
19236;BME280;9752;54.270;12.470;2023-01-19T19:32:03;100664.81;;;-0.79;100.00
19236;BME280;9752;54.270;12.470;2023-01-19T19:37:05;100677.84;;;-0.75;100.00
19236;BME280;9752;54.270;12.470;2023-01-19T19:42:08;100689.22;;;-0.81;100.00
19236;BME280;9752;54.270;12.470;2023-01-19T19:47:10;100693.97;;;-0.84;100.00
19236;BME280;9752;54.270;12.470;2023-01-19T19:52:11;100705.22;;;-0.82;100.00
19236;BME280;9752;54.270;12.470;2023-01-19T19:57:14;100716.88;;;-0.84;100.00
19236;BME280;9752;54.270;12.470;2023-01-19T20:02:16;100722.78;;;-1.01;100.00
19236;BME280;9752;54.270;12.470;2023-01-19T20:07:18;100727.88;;;-1.01;100.00
19236;BME280;9752;54.270;12.470;2023-01-19T20:12:21;100735.56;;;-0.92;100.00
19236;BME280;9752;54.270;12.470;2023-01-19T20:17:22;100758.28;;;-1.02;100.00
19236;BME280;9752;54.270;12.470;2023-01-19T20:22:24;100756.47;;;-1.03;100.00
19236;BME280;9752;54.270;12.470;2023-01-19T20:27:27;100771.63;;;-0.96;100.00
19236;BME280;9752;54.270;12.470;2023-01-19T20:32:29;100784.03;;;-0.99;100.00
19236;BME280;9752;54.270;12.470;2023-01-19T20:37:30;100793.56;;;-1.05;100.00
19236;BME280;9752;54.270;12.470;2023-01-19T20:42:34;100794.72;;;-1.10;100.00
19236;BME280;9752;54.270;12.470;2023-01-19T20:47:36;100813.06;;;-1.38;100.00
19236;BME280;9752;54.270;12.470;2023-01-19T20:52:37;100821.50;;;-1.46;100.00
19236;BME280;9752;54.270;12.470;2023-01-19T20:57:40;100842.41;;;-1.48;100.00
19236;BME280;9752;54.270;12.470;2023-01-19T21:02:42;100846.03;;;-1.46;100.00
19236;BME280;9752;54.270;12.470;2023-01-19T21:07:44;100860.56;;;-1.45;100.00
19236;BME280;9752;54.270;12.470;2023-01-19T21:12:47;100873.22;;;-1.38;100.00
19236;BME280;9752;54.270;12.470;2023-01-19T21:17:48;100881.50;;;-1.48;100.00
19236;BME280;9752;54.270;12.470;2023-01-19T21:22:50;100892.00;;;-1.45;100.00
19236;BME280;9752;54.270;12.470;2023-01-19T21:27:53;100897.84;;;-1.46;100.00
19236;BME280;9752;54.270;12.470;2023-01-19T21:32:55;100909.31;;;-1.49;100.00
19236;BME280;9752;54.270;12.470;2023-01-19T21:37:56;100923.69;;;-1.34;100.00
19236;BME280;9752;54.270;12.470;2023-01-19T21:43:00;100933.53;;;-1.37;100.00
19236;BME280;9752;54.270;12.470;2023-01-19T21:48:01;100947.91;;;-1.22;100.00
19236;BME280;9752;54.270;12.470;2023-01-19T21:53:03;100959.41;;;-1.25;100.00
19236;BME280;9752;54.270;12.470;2023-01-19T21:58:09;100961.88;;;-1.34;100.00
19236;BME280;9752;54.270;12.470;2023-01-19T22:03:11;100971.16;;;-1.34;100.00
19236;BME280;9752;54.270;12.470;2023-01-19T22:08:13;100975.88;;;-1.38;100.00
19236;BME280;9752;54.270;12.470;2023-01-19T22:13:16;100986.50;;;-1.49;100.00
19236;BME280;9752;54.270;12.470;2023-01-19T22:18:18;100991.88;;;-1.62;100.00
19236;BME280;9752;54.270;12.470;2023-01-19T22:23:20;100996.00;;;-1.78;100.00
19236;BME280;9752;54.270;12.470;2023-01-19T22:28:23;101001.53;;;-1.89;100.00
19236;BME280;9752;54.270;12.470;2023-01-19T22:33:26;101000.09;;;-1.94;100.00
19236;BME280;9752;54.270;12.470;2023-01-19T22:38:28;101015.59;;;-2.07;100.00
19236;BME280;9752;54.270;12.470;2023-01-19T22:43:31;101026.34;;;-2.17;100.00
19236;BME280;9752;54.270;12.470;2023-01-19T22:48:33;101022.44;;;-2.29;100.00
19236;BME280;9752;54.270;12.470;2023-01-19T22:53:35;101030.19;;;-2.21;100.00
19236;BME280;9752;54.270;12.470;2023-01-19T22:58:38;101038.75;;;-2.27;100.00
19236;BME280;9752;54.270;12.470;2023-01-19T23:03:40;101037.47;;;-2.24;100.00
19236;BME280;9752;54.270;12.470;2023-01-19T23:08:42;101052.50;;;-2.18;100.00
19236;BME280;9752;54.270;12.470;2023-01-19T23:13:46;101052.84;;;-2.15;100.00
19236;BME280;9752;54.270;12.470;2023-01-19T23:18:51;101053.78;;;-2.22;100.00
19236;BME280;9752;54.270;12.470;2023-01-19T23:23:54;101065.94;;;-2.26;100.00
19236;BME280;9752;54.270;12.470;2023-01-19T23:28:59;101073.44;;;-2.35;100.00
19236;BME280;9752;54.270;12.470;2023-01-19T23:34:02;101073.25;;;-2.37;100.00
19236;BME280;9752;54.270;12.470;2023-01-19T23:39:06;101085.56;;;-2.25;100.00
19236;BME280;9752;54.270;12.470;2023-01-19T23:44:10;101088.41;;;-2.15;100.00
19236;BME280;9752;54.270;12.470;2023-01-19T23:49:12;101093.50;;;-2.15;100.00
19236;BME280;9752;54.270;12.470;2023-01-19T23:54:14;101097.69;;;-2.16;100.00
19236;BME280;9752;54.270;12.470;2023-01-19T23:59:17;101106.19;;;-2.15;100.00
